createdAt,value
2019-03-06T00:01:38.594Z,99.90
2019-03-06T00:04:08.682Z,99.90
2019-03-06T00:06:38.866Z,99.90
2019-03-06T00:09:09.729Z,99.90
2019-03-06T00:11:39.910Z,99.90
2019-03-06T00:14:10.160Z,99.90
2019-03-06T00:16:40.266Z,99.90
2019-03-06T00:19:10.908Z,99.90
2019-03-06T00:21:41.064Z,99.90
2019-03-06T00:24:11.163Z,99.90
2019-03-06T00:26:41.381Z,99.90
2019-03-06T00:29:11.554Z,99.90
2019-03-06T00:31:41.661Z,99.90
2019-03-06T00:34:11.854Z,99.90
2019-03-06T00:36:42.035Z,99.90
2019-03-06T00:39:12.609Z,99.90
2019-03-06T00:41:47.848Z,99.90
2019-03-06T00:44:17.881Z,99.90
2019-03-06T00:46:49.079Z,99.90
2019-03-06T00:49:19.181Z,99.90
2019-03-06T00:51:49.274Z,99.90
2019-03-06T00:54:19.385Z,99.90
2019-03-06T00:56:49.515Z,99.90
2019-03-06T00:59:19.596Z,99.90
2019-03-06T01:01:49.704Z,99.90
2019-03-06T01:04:20.153Z,99.90
2019-03-06T01:06:50.250Z,99.90
2019-03-06T01:09:20.630Z,99.90
2019-03-06T01:11:50.808Z,99.90
2019-03-06T01:14:20.914Z,99.90
2019-03-06T01:16:51.075Z,99.90
2019-03-06T01:19:21.255Z,99.90
2019-03-06T01:21:51.277Z,99.90
2019-03-06T01:24:21.386Z,99.90
2019-03-06T01:26:51.837Z,99.90
2019-03-06T01:29:21.869Z,99.90
2019-03-06T01:31:51.975Z,99.90
2019-03-06T01:34:44.022Z,99.90
2019-03-06T01:37:36.937Z,99.90
2019-03-06T01:40:22.437Z,99.90
2019-03-06T01:42:57.257Z,99.90
2019-03-06T01:45:27.439Z,99.90
2019-03-06T01:47:57.602Z,99.90
2019-03-06T01:50:27.987Z,99.90
2019-03-06T01:52:58.126Z,99.90
2019-03-06T01:55:28.307Z,99.90
2019-03-06T01:57:58.722Z,99.90
2019-03-06T02:00:28.907Z,99.90
2019-03-06T02:02:59.145Z,99.90
2019-03-06T02:05:30.119Z,99.90
2019-03-06T02:08:00.326Z,99.90
2019-03-06T02:10:31.106Z,99.90
2019-03-06T02:13:01.541Z,99.90
2019-03-06T02:15:31.643Z,99.90
2019-03-06T02:18:02.166Z,99.90
2019-03-06T02:20:32.348Z,99.90
2019-03-06T02:23:02.441Z,99.90
2019-03-06T02:25:32.760Z,99.90
2019-03-06T02:28:02.921Z,99.90
2019-03-06T02:30:33.106Z,99.90
2019-03-06T02:33:03.381Z,99.90
2019-03-06T02:35:33.661Z,99.90
2019-03-06T02:38:03.757Z,99.90
2019-03-06T02:40:33.790Z,99.90
2019-03-06T02:43:03.960Z,99.90
2019-03-06T02:45:34.065Z,99.90
2019-03-06T02:48:04.520Z,99.90
2019-03-06T02:50:34.702Z,99.90
2019-03-06T02:53:04.890Z,99.90
2019-03-06T02:55:35.075Z,99.90
2019-03-06T02:58:14.336Z,99.90
2019-03-06T03:01:09.515Z,99.90
2019-03-06T03:04:07.636Z,99.90
2019-03-06T03:06:42.029Z,99.90
2019-03-06T03:09:18.826Z,99.90
2019-03-06T03:11:49.018Z,99.90
2019-03-06T03:14:19.048Z,99.90
2019-03-06T03:16:50.329Z,99.90
2019-03-06T03:19:20.696Z,99.90
2019-03-06T03:21:50.803Z,99.90
2019-03-06T03:24:21.202Z,99.90
2019-03-06T03:26:51.431Z,99.90
2019-03-06T03:29:21.525Z,99.90
2019-03-06T03:31:51.637Z,99.90
2019-03-06T03:34:21.730Z,99.90
2019-03-06T03:36:52.162Z,99.90
2019-03-06T03:39:22.341Z,99.90
2019-03-06T03:41:52.447Z,99.90
2019-03-06T03:44:22.547Z,99.90
2019-03-06T03:46:52.933Z,99.90
2019-03-06T03:49:23.037Z,99.90
2019-03-06T03:51:53.474Z,99.90
2019-03-06T03:54:23.592Z,99.90
2019-03-06T03:56:53.768Z,99.90
2019-03-06T03:59:23.879Z,99.90
2019-03-06T04:01:53.977Z,99.90
2019-03-06T04:04:24.469Z,99.90
2019-03-06T04:06:54.653Z,99.90
2019-03-06T04:09:25.065Z,99.90
2019-03-06T04:11:55.160Z,99.90
2019-03-06T04:14:25.353Z,99.90
2019-03-06T04:16:55.502Z,99.90
2019-03-06T04:19:25.613Z,99.90
2019-03-06T04:21:55.703Z,99.90
2019-03-06T04:24:26.114Z,99.90
2019-03-06T04:26:56.138Z,99.90
2019-03-06T04:29:26.593Z,99.90
2019-03-06T04:31:56.686Z,99.90
2019-03-06T04:34:26.802Z,99.90
2019-03-06T04:36:57.076Z,99.90
2019-03-06T04:39:27.505Z,99.90
2019-03-06T04:41:57.490Z,99.90
2019-03-06T04:44:27.520Z,99.90
2019-03-06T04:46:57.958Z,99.90
2019-03-06T04:49:28.064Z,99.90
2019-03-06T04:51:58.581Z,99.90
2019-03-06T04:54:28.624Z,99.90
2019-03-06T04:56:59.037Z,99.90
2019-03-06T04:59:29.242Z,99.90
2019-03-06T05:01:59.397Z,99.90
2019-03-06T05:04:29.460Z,99.90
2019-03-06T05:06:59.479Z,99.90
2019-03-06T05:09:29.505Z,99.90
2019-03-06T05:11:59.688Z,99.90
2019-03-06T05:14:29.735Z,99.90
2019-03-06T05:17:15.931Z,99.90
2019-03-06T05:19:45.971Z,99.90
2019-03-06T05:22:15.990Z,99.90
2019-03-06T05:24:46.116Z,99.90
2019-03-06T05:27:16.153Z,99.90
2019-03-06T05:29:46.252Z,99.90
2019-03-06T05:32:51.064Z,99.90
2019-03-06T05:35:27.036Z,99.90
2019-03-06T05:38:21.792Z,99.90
2019-03-06T05:40:51.949Z,99.90
2019-03-06T05:43:22.042Z,99.90
2019-03-06T05:45:52.164Z,99.90
2019-03-06T05:48:22.220Z,99.90
2019-03-06T05:50:52.237Z,99.90
2019-03-06T05:53:22.315Z,99.90
2019-03-06T05:55:52.661Z,99.90
2019-03-06T05:58:22.738Z,99.90
2019-03-06T06:00:53.100Z,99.90
2019-03-06T06:03:23.176Z,99.90
2019-03-06T06:05:53.189Z,99.90
2019-03-06T06:08:23.198Z,99.90
2019-03-06T06:10:53.284Z,99.90
2019-03-06T06:13:23.623Z,99.90
2019-03-06T06:15:53.711Z,99.90
2019-03-06T06:18:23.718Z,99.90
2019-03-06T06:21:07.453Z,99.90
2019-03-06T06:23:47.729Z,99.90
2019-03-06T06:26:17.737Z,99.90
2019-03-06T06:28:47.740Z,99.90
2019-03-06T06:31:17.854Z,99.90
2019-03-06T06:33:47.941Z,99.90
2019-03-06T06:36:17.982Z,99.90
2019-03-06T06:38:48.555Z,99.90
2019-03-06T06:41:18.868Z,99.90
2019-03-06T06:43:49.057Z,99.90
2019-03-06T06:46:19.155Z,99.90
2019-03-06T06:48:49.522Z,99.90
2019-03-06T06:52:11.272Z,99.90
2019-03-06T06:55:26.239Z,99.90
2019-03-06T06:59:00.192Z,99.90
2019-03-06T07:01:57.590Z,99.90
2019-03-06T07:04:49.905Z,99.90
2019-03-06T07:07:34.043Z,99.90
2019-03-06T07:10:26.648Z,99.90
2019-03-06T07:13:15.759Z,99.90
2019-03-06T07:16:14.064Z,99.90
2019-03-06T07:19:03.020Z,99.90
2019-03-06T07:21:50.026Z,99.90
2019-03-06T07:24:38.068Z,99.90
2019-03-06T07:27:26.655Z,99.90
2019-03-06T07:30:03.380Z,99.90
2019-03-06T07:32:44.372Z,99.90
2019-03-06T07:36:14.880Z,99.90
2019-03-06T07:38:44.990Z,99.90
2019-03-06T07:41:36.787Z,99.90
2019-03-06T07:44:30.235Z,99.90
2019-03-06T07:47:14.269Z,99.90
2019-03-06T07:50:04.810Z,99.90
2019-03-06T07:53:02.616Z,99.90
2019-03-06T07:55:52.237Z,99.90
2019-03-06T07:58:56.712Z,99.90
2019-03-06T08:01:33.632Z,99.90
2019-03-06T08:04:13.165Z,99.90
2019-03-06T08:06:47.414Z,99.90
2019-03-06T08:09:20.152Z,99.90
2019-03-06T08:12:24.802Z,99.90
2019-03-06T08:15:13.255Z,90.20
2019-03-06T08:18:17.809Z,90.10
2019-03-06T08:21:15.813Z,2.20
2019-03-06T08:23:53.146Z,1.00
2019-03-06T08:26:23.403Z,1.00
2019-03-06T08:28:53.500Z,1.00
2019-03-06T08:31:41.671Z,1.00
2019-03-06T08:34:11.763Z,99.90
2019-03-06T08:36:41.986Z,1.00
2019-03-06T08:39:30.257Z,1.00
2019-03-06T08:42:00.289Z,99.90
2019-03-06T08:44:30.381Z,99.90
2019-03-06T08:47:15.777Z,99.90
2019-03-06T08:49:55.219Z,99.90
2019-03-06T08:53:02.443Z,1.00
2019-03-06T08:55:41.521Z,1.00
2019-03-06T08:58:17.573Z,63.00
2019-03-06T09:01:16.988Z,99.90
2019-03-06T09:03:56.900Z,99.90
2019-03-06T09:06:52.426Z,1.00
2019-03-06T09:09:36.699Z,99.90
2019-03-06T09:12:16.971Z,99.90
2019-03-06T09:15:10.522Z,99.90
2019-03-06T09:18:08.901Z,19.40
2019-03-06T09:20:50.695Z,99.90
2019-03-06T09:23:38.791Z,1.00
2019-03-06T09:26:31.613Z,1.00
2019-03-06T09:29:20.853Z,1.00
2019-03-06T09:32:08.915Z,1.00
2019-03-06T09:35:00.966Z,1.00
2019-03-06T09:37:55.791Z,99.90
2019-03-06T09:40:53.821Z,99.90
2019-03-06T09:43:32.632Z,99.90
2019-03-06T09:46:36.913Z,99.90
2019-03-06T09:49:29.112Z,99.60
2019-03-06T09:52:17.449Z,86.00
2019-03-06T09:55:05.065Z,51.30
2019-03-06T09:57:44.491Z,1.00
2019-03-06T10:00:24.779Z,1.00
2019-03-06T10:03:12.360Z,1.00
2019-03-06T10:06:02.046Z,1.00
2019-03-06T10:08:39.038Z,1.00
2019-03-06T10:11:31.032Z,1.00
2019-03-06T10:14:09.486Z,1.00
2019-03-06T10:16:58.497Z,1.00
2019-03-06T10:19:36.414Z,99.90
2019-03-06T10:22:06.575Z,99.90
2019-03-06T10:24:36.743Z,99.90
2019-03-06T10:27:06.908Z,99.90
2019-03-06T10:29:37.351Z,99.90
2019-03-06T10:32:07.505Z,99.90
2019-03-06T10:34:37.929Z,99.90
2019-03-06T10:39:37.988Z,99.90
2019-03-06T10:42:08.334Z,99.90
2019-03-06T10:44:38.935Z,99.90
2019-03-06T10:47:09.189Z,99.90
2019-03-06T10:49:39.463Z,99.90
2019-03-06T10:52:09.759Z,99.90
2019-03-06T10:54:44.660Z,99.90
2019-03-06T10:57:12.242Z,99.90
2019-03-06T10:59:42.808Z,99.90
2019-03-06T11:02:13.098Z,99.90
2019-03-06T11:04:57.048Z,99.90
2019-03-06T11:07:27.211Z,99.90
2019-03-06T11:09:57.742Z,99.90
2019-03-06T11:12:27.899Z,99.90
2019-03-06T11:14:58.068Z,99.90
2019-03-06T11:17:28.314Z,99.90
2019-03-06T11:19:58.688Z,99.90
2019-03-06T11:22:28.860Z,99.90
2019-03-06T11:24:59.017Z,99.80
2019-03-06T11:27:29.259Z,94.70
2019-03-06T11:29:59.434Z,94.20
2019-03-06T11:32:29.963Z,94.00
2019-03-06T11:35:00.669Z,94.30
2019-03-06T11:37:30.855Z,99.90
2019-03-06T11:40:00.948Z,94.20
2019-03-06T11:42:31.490Z,94.20
2019-03-06T11:45:01.537Z,63.90
2019-03-06T11:47:31.602Z,64.30
2019-03-06T11:50:02.146Z,74.60
2019-03-06T11:52:34.737Z,67.70
2019-03-06T11:55:06.566Z,74.80
2019-03-06T11:57:37.485Z,72.80
2019-03-06T12:00:11.249Z,77.70
2019-03-06T12:02:41.440Z,90.70
2019-03-06T12:05:11.695Z,81.60
2019-03-06T12:07:41.876Z,67.50
2019-03-06T12:10:12.156Z,59.10
2019-03-06T12:12:42.736Z,63.80
2019-03-06T12:15:15.176Z,74.70
2019-03-06T12:17:45.356Z,62.70
2019-03-06T12:20:15.531Z,46.50
2019-03-06T12:22:45.706Z,42.40
2019-03-06T12:25:16.144Z,38.30
2019-03-06T12:27:46.321Z,24.10
2019-03-06T12:30:17.139Z,28.80
2019-03-06T12:32:47.319Z,45.10
2019-03-06T12:35:18.837Z,39.30
2019-03-06T12:37:48.939Z,29.90
2019-03-06T12:40:19.718Z,27.80
2019-03-06T12:42:49.969Z,29.80
2019-03-06T12:45:20.529Z,32.90
2019-03-06T12:47:55.345Z,48.30
2019-03-06T12:50:25.072Z,54.10
2019-03-06T12:52:55.250Z,33.50
2019-03-06T12:55:25.657Z,39.20
2019-03-06T12:57:59.439Z,43.60
2019-03-06T13:00:27.856Z,55.70
2019-03-06T13:02:58.595Z,52.60
2019-03-06T13:05:28.753Z,54.40
2019-03-06T13:07:58.949Z,58.10
2019-03-06T13:10:29.110Z,56.80
2019-03-06T13:12:59.291Z,64.70
2019-03-06T13:15:29.382Z,59.20
2019-03-06T13:17:59.474Z,52.70
2019-03-06T13:20:29.639Z,48.30
2019-03-06T13:23:00.064Z,47.60
2019-03-06T13:25:30.417Z,41.40
2019-03-06T13:28:00.496Z,39.70
2019-03-06T13:30:30.876Z,38.20
2019-03-06T13:33:09.970Z,32.70
2019-03-06T13:35:40.353Z,34.40
2019-03-06T13:38:10.710Z,23.40
2019-03-06T13:40:40.880Z,35.20
2019-03-06T13:43:10.968Z,20.20
2019-03-06T13:45:41.683Z,20.50
2019-03-06T13:48:11.841Z,15.30
2019-03-06T13:50:42.017Z,15.00
2019-03-06T13:53:20.124Z,13.30
2019-03-06T13:55:44.005Z,14.00
2019-03-06T13:58:14.348Z,13.50
2019-03-06T14:00:44.516Z,14.40
2019-03-06T14:03:14.522Z,17.90
2019-03-06T14:05:44.696Z,20.50
2019-03-06T14:08:14.977Z,21.60
2019-03-06T14:10:45.153Z,24.50
2019-03-06T14:13:15.176Z,25.30
2019-03-06T14:15:53.654Z,25.30
2019-03-06T14:18:17.203Z,34.40
2019-03-06T14:20:47.370Z,22.20
2019-03-06T14:23:17.863Z,27.70
2019-03-06T14:25:48.230Z,30.70
2019-03-06T14:28:18.389Z,32.10
2019-03-06T14:30:48.561Z,36.60
2019-03-06T14:33:18.888Z,42.60
2019-03-06T14:35:49.297Z,48.70
2019-03-06T14:38:19.659Z,45.50
2019-03-06T14:40:49.984Z,53.50
2019-03-06T14:43:20.793Z,70.30
2019-03-06T14:45:51.082Z,78.00
2019-03-06T14:48:21.246Z,88.10
2019-03-06T14:50:51.265Z,90.00
2019-03-06T14:53:21.446Z,88.20
2019-03-06T14:55:51.588Z,94.50
2019-03-06T14:58:21.677Z,93.60
2019-03-06T15:00:52.357Z,93.80
2019-03-06T15:03:22.627Z,94.00
2019-03-06T15:05:52.729Z,94.10
2019-03-06T15:08:22.880Z,94.00
2019-03-06T15:10:53.413Z,93.90
2019-03-06T15:13:23.424Z,94.00
2019-03-06T15:15:53.898Z,93.90
2019-03-06T15:18:24.053Z,94.10
2019-03-06T15:20:54.157Z,94.10
2019-03-06T15:23:24.342Z,99.90
2019-03-06T15:25:54.449Z,99.90
2019-03-06T15:28:24.542Z,99.90
2019-03-06T15:30:54.733Z,94.20
2019-03-06T15:33:24.827Z,94.10
2019-03-06T15:35:54.984Z,94.20
2019-03-06T15:38:25.142Z,99.90
2019-03-06T15:40:55.434Z,94.10
2019-03-06T15:43:25.676Z,94.20
2019-03-06T15:45:55.763Z,94.20
2019-03-06T15:48:26.222Z,94.20
2019-03-06T15:50:56.360Z,94.00
2019-03-06T15:53:26.470Z,94.00
2019-03-06T15:55:57.360Z,94.20
2019-03-06T15:58:27.532Z,99.90
2019-03-06T16:00:57.627Z,99.90
2019-03-06T16:03:27.799Z,99.90
2019-03-06T16:05:58.289Z,99.90
2019-03-06T16:08:29.438Z,99.90
2019-03-06T16:10:59.588Z,99.90
2019-03-06T16:13:29.762Z,99.90
2019-03-06T16:15:59.922Z,99.90
2019-03-06T16:18:30.020Z,99.90
2019-03-06T16:21:00.175Z,99.90
2019-03-06T16:23:30.358Z,99.90
2019-03-06T16:26:00.441Z,99.90
2019-03-06T16:28:30.614Z,99.90
2019-03-06T16:31:00.709Z,99.90
2019-03-06T16:33:30.811Z,99.90
2019-03-06T16:36:01.045Z,99.90
2019-03-06T16:38:31.219Z,99.90
2019-03-06T16:41:01.392Z,99.90
2019-03-06T16:43:31.492Z,99.90
2019-03-06T16:46:01.656Z,99.90
2019-03-06T16:48:32.115Z,99.90
2019-03-06T16:51:02.399Z,99.90
2019-03-06T16:53:32.636Z,99.90
2019-03-06T16:56:03.110Z,99.90
2019-03-06T16:58:33.488Z,99.90
2019-03-06T17:01:04.345Z,99.90
2019-03-06T17:03:35.228Z,99.90
2019-03-06T17:06:05.827Z,99.90
2019-03-06T17:08:35.862Z,99.90
2019-03-06T17:11:06.447Z,99.90
2019-03-06T17:13:36.544Z,99.90
2019-03-06T17:16:06.750Z,99.90
2019-03-06T17:18:36.990Z,99.90
2019-03-06T17:21:07.143Z,99.90
2019-03-06T17:23:37.652Z,99.90
2019-03-06T17:26:07.736Z,99.90
2019-03-06T17:28:38.162Z,99.90
2019-03-06T17:31:08.417Z,99.90
2019-03-06T17:33:38.502Z,99.90
2019-03-06T17:36:08.671Z,99.90
2019-03-06T17:38:38.830Z,99.90
2019-03-06T17:41:09.972Z,99.90
2019-03-06T17:43:40.056Z,99.90
2019-03-06T17:46:10.362Z,99.90
2019-03-06T17:48:40.527Z,99.90
2019-03-06T17:51:10.710Z,99.90
2019-03-06T17:53:40.830Z,99.90
2019-03-06T17:56:11.024Z,99.90
2019-03-06T17:58:41.221Z,99.90
2019-03-06T18:01:15.347Z,99.90
2019-03-06T18:03:51.714Z,99.90
2019-03-06T18:06:21.758Z,99.90
2019-03-06T18:08:51.934Z,99.90
2019-03-06T18:11:22.289Z,99.90
2019-03-06T18:13:52.471Z,99.90
2019-03-06T18:16:22.643Z,99.90
2019-03-06T18:18:53.490Z,99.90
2019-03-06T18:21:23.508Z,99.90
2019-03-06T18:23:53.993Z,99.90
2019-03-06T18:26:24.124Z,99.90
2019-03-06T18:28:54.731Z,99.90
2019-03-06T18:31:24.851Z,1.00
2019-03-06T18:33:55.476Z,1.00
2019-03-06T18:36:25.661Z,1.00
2019-03-06T18:38:55.740Z,1.00
2019-03-06T18:41:25.906Z,1.00
2019-03-06T18:43:56.398Z,1.00
2019-03-06T18:46:26.487Z,1.00
2019-03-06T18:48:57.229Z,1.00
2019-03-06T18:51:27.377Z,1.00
2019-03-06T18:53:57.450Z,1.00
2019-03-06T18:56:27.848Z,1.00
2019-03-06T18:58:58.979Z,1.00
2019-03-06T19:01:29.570Z,1.00
2019-03-06T19:03:59.647Z,1.00
2019-03-06T19:06:29.806Z,1.00
2019-03-06T19:08:59.957Z,1.00
2019-03-06T19:11:30.165Z,1.00
2019-03-06T19:14:00.736Z,1.00
2019-03-06T19:16:30.839Z,1.00
2019-03-06T19:19:00.863Z,1.00
2019-03-06T19:21:31.030Z,1.00
2019-03-06T19:24:01.512Z,8.40
2019-03-06T19:26:31.686Z,24.60
2019-03-06T19:29:01.784Z,36.50
2019-03-06T19:31:31.796Z,31.80
2019-03-06T19:34:02.206Z,31.30
2019-03-06T19:36:32.367Z,25.00
2019-03-06T19:39:02.611Z,23.20
2019-03-06T19:41:33.113Z,42.50
2019-03-06T19:44:03.289Z,61.10
2019-03-06T19:46:34.346Z,45.00
2019-03-06T19:49:04.785Z,39.20
2019-03-06T19:51:35.633Z,15.30
2019-03-06T19:54:05.879Z,21.70
2019-03-06T19:56:36.119Z,24.50
2019-03-06T19:59:06.435Z,24.10
2019-03-06T20:01:36.930Z,38.90
2019-03-06T20:04:07.101Z,53.30
2019-03-06T20:06:37.431Z,73.10
2019-03-06T20:09:30.172Z,63.90
2019-03-06T20:12:00.653Z,61.50
2019-03-06T20:14:31.080Z,76.60
2019-03-06T20:17:01.609Z,65.20
2019-03-06T20:19:31.883Z,95.20
2019-03-06T20:22:02.194Z,99.90
2019-03-06T20:24:32.366Z,99.90
2019-03-06T20:27:02.537Z,99.90
2019-03-06T20:29:32.922Z,99.90
2019-03-06T20:32:03.083Z,99.90
2019-03-06T20:34:33.858Z,99.90
2019-03-06T20:37:03.944Z,99.90
2019-03-06T20:39:34.435Z,99.90
2019-03-06T20:42:04.947Z,99.90
2019-03-06T20:44:35.042Z,99.90
2019-03-06T20:47:05.047Z,99.90
2019-03-06T20:49:35.144Z,99.90
2019-03-06T20:52:05.163Z,99.90
2019-03-06T20:54:35.523Z,99.90
2019-03-06T20:57:05.619Z,99.90
2019-03-06T20:59:35.648Z,99.90
2019-03-06T21:02:05.804Z,99.90
2019-03-06T21:04:35.917Z,99.90
2019-03-06T21:07:06.325Z,99.90
2019-03-06T21:09:36.431Z,99.90
2019-03-06T21:12:06.789Z,99.90
2019-03-06T21:14:37.815Z,99.90
2019-03-06T21:17:08.599Z,99.90
2019-03-06T21:19:38.778Z,99.90
2019-03-06T21:22:09.218Z,99.90
2019-03-06T21:24:39.246Z,99.90
2019-03-06T21:27:09.367Z,99.90
2019-03-06T21:29:40.632Z,99.90
2019-03-06T21:32:10.802Z,99.90
2019-03-06T21:34:40.818Z,99.90
2019-03-06T21:37:10.904Z,1.00
2019-03-06T21:39:40.992Z,1.00
2019-03-06T21:42:11.335Z,1.00
2019-03-06T21:44:41.349Z,1.00
2019-03-06T21:47:11.536Z,1.00
2019-03-06T21:49:41.894Z,1.00
2019-03-06T21:52:11.930Z,1.00
2019-03-06T21:54:42.045Z,1.00
2019-03-06T21:57:12.437Z,99.90
2019-03-06T21:59:42.639Z,99.90
2019-03-06T22:02:12.738Z,99.90
2019-03-06T22:04:43.035Z,99.90
2019-03-06T22:07:13.304Z,99.90
2019-03-06T22:09:43.337Z,99.90
2019-03-06T22:12:13.748Z,99.90
2019-03-06T22:14:43.855Z,99.90
2019-03-06T22:17:13.922Z,99.90
2019-03-06T22:19:44.096Z,99.90
2019-03-06T22:22:14.184Z,99.90
2019-03-06T22:24:44.206Z,99.90
2019-03-06T22:27:14.467Z,99.90
2019-03-06T22:29:44.440Z,1.00
2019-03-06T22:32:14.475Z,1.00
2019-03-06T22:34:44.481Z,1.00
2019-03-06T22:37:14.568Z,1.00
2019-03-06T22:39:44.580Z,1.00
2019-03-06T22:42:14.759Z,1.00
2019-03-06T22:44:44.761Z,1.00
2019-03-06T22:47:14.775Z,1.00
2019-03-06T22:49:44.778Z,1.00
2019-03-06T22:52:14.862Z,1.00
2019-03-06T22:54:44.933Z,1.00
2019-03-06T22:57:15.099Z,1.00
2019-03-06T22:59:45.284Z,1.00
2019-03-06T23:02:16.219Z,1.00
2019-03-06T23:04:46.292Z,1.00
2019-03-06T23:07:16.394Z,1.00
2019-03-06T23:09:46.487Z,99.90
2019-03-06T23:12:16.931Z,99.90
2019-03-06T23:14:47.099Z,1.00
2019-03-06T23:17:17.184Z,99.90
2019-03-06T23:19:47.218Z,99.90
2019-03-06T23:22:17.678Z,30.20
2019-03-06T23:24:48.761Z,1.00
2019-03-06T23:27:19.463Z,1.00
2019-03-06T23:29:49.476Z,1.00
2019-03-06T23:32:19.499Z,99.90
2019-03-06T23:34:49.593Z,1.00
2019-03-06T23:37:19.679Z,1.00
2019-03-06T23:39:50.075Z,1.00
2019-03-06T23:42:20.527Z,1.00
2019-03-06T23:44:50.579Z,1.00
2019-03-06T23:47:21.211Z,1.00
2019-03-06T23:49:51.553Z,38.40
2019-03-06T23:52:26.076Z,99.90
2019-03-06T23:54:56.832Z,99.90
2019-03-06T23:57:27.331Z,99.90
2019-03-06T23:59:57.347Z,1.00
